Airways and Terminal Forecast

Significant Meteorological Information

WSPH31 RPLL 301940 
RPHI SIGMET A15 VALID 301943/302343 RPLL-
RPHI MANILA FIR EMBD TS OBS WI N1202 E12131 - N1118 E12501 - N0948 E12218 - N1014 E12046 - N1202 E12131 TOP FL520 MOV W 15KT NC=


WSPH31 RPLL 301836 
RPHI SIGMET E13 VALID 301836/302236 RPLL-
RPHI MANILA FIR EMBD TS OBS WI N0727 E11953 - N0624 E11818 - N0632 E11811 - N0806 E11659 - N0858 E11741 - N0727 E11953 TOP FL530 MOV W 20KT NC=


WSPH31 RPLL 301820 
RPHI SIGMET F12 VALID 301823/302223 RPLL-
RPHI MANILA FIR EMBD TS OBS WI N1600 E12316 - N1403 E12538 - N1330 E12125 - N1454 E12104 - N1600 E12316 TOP FL520 MOV WNW 10KT INTSF=

 

Terminal Aerodrome Forecast

TAF RPLL

302300Z 0100/0206 10004KT 9999 FEW025 TX31/0103Z TN26/0122Z TEMPO 0104/0110 09013KT -SHRA SCT023 BKN090 TEMPO 0106/0112 09012KT SCT025 BKN100=

TAF RPVM

302300Z 0100/0206 04009KT 9999 FEW020 BKN100 TEMPO 0100/0106 03015KT 6000 SHRA FEW018CB OVC100 TEMPO 0106/0112 05014KT 5000 TSRA SCT018CB OVC090=

TAF RPLC

302300Z 0100/0206 25006KT 9999 FEW020 BKN300 TX34/0106Z TN24/0121Z TEMPO 0100/0106 27008KT SCT020 BKN100=

TAF RPLB

302300Z 0100/0124 08007KT 9999 FEW020 SCT080 TX33/0106Z TN25/0121Z TEMPO 0100/0106 06012KT FEW020 SCT300=

TAF RPLI

302300Z 0100/0124 04007KT 9999 FEW018 SCT090 TEMPO 0110/0114 36010KT FEW018 SCT240=

TAF RPVP

302300Z 0100/0124 06008KT 9999 FEW019 SCT240 TEMPO 0100/0106 09013KT -SHRA FEW017CB SCT019 BKN080=

TAF RPVD

302300Z 0100/0124 32006KT 9999 FEW015 BKN070 TEMPO 0100/0106 04011KT 8000 -SHRA FEW014CB BKN015 OVC070=

TAF RPMR

302300Z 0100/0124 02005KT 9999 FEW018 SCT080 TEMPO 0103/0109 -SHRA FEW017CB BKN080=

TAF RPMD

302300Z 0100/0124 02006KT 9999 FEW016 SCT090 BKN260 TEMPO 0100/0106 03011KT -SHRA FEW015CB BKN090=

TAF RPMZ

302300Z 0100/0124 07006KT 9999 FEW017 SCT300 TEMPO 0106/0112 7000 -TSRA FEW016CB SCT017 OVC090=

TAF RPVK

302300Z 0100/0124 05011KT 9999 SCT016 BKN070 BKN240 TEMPO 0100/0106 5000 SHRA FEW015CB SCT016 OVC070=

 

RPLL FORECAST TAKE-OFF CONDITION

TIME

(UTC)

WIND

(dddffKT)

TEMP

(°C)

QNH

(hPa)

TIME

(UTC)

WIND

(dddffKT)

TEMP

(°C)

QNH

(hPa)

0000

09005KT

28.0

1012.0

0400

10008KT

30.0

1010.0

0100

11004KT

29.0

1012.0

0500

10009KT

29.0

1010.0

0200

10006KT

30.0

1011.0

0600

09013KT

29.0

1009.0

0300

11005KT

31.0

1011.0

0700

11011KT

28.0

1009.0

 

ISSUED AT NAIA AMSS-WD/PAGASA-DOST FOR 2300UTC 30 NOVEMBER 2022

PREPARED BY:   CRSED

CHECKED BY:     MPT